Ana Sayfa
METAR-TAF:

METAR-TAF

Havaalanları :

Port of Spain, Trinidad, Trinidad ve Tobago

Enlem: 10-37N, Boylam: 061-21W, yükseklik: 12 m

Güncel hava durumu gözlemi

Rapor saat 00:00 UTC de 49 dakika önce yapıldı.
Rüzgar doğudan 6 kt
Sıcaklık 26°C
Nem 74%
Basınç 1015 hPa
Görüş mesafesi 10 km veya daha fazla
1600 ft yükseklikte az bulutlu

METAR: TTPP 280000Z 09006KT 9999 FEW016 26/21 Q1015 NOSIG

Saat: 20:49 (00:49 UTC)

Tahmin

Rapor saat 22:00 UTC de 2 saat ve 49 dakika önce yapıldı.
Ayın 28'si saat 00 UTC'den ayın 28'si saat 24 UTC'ye kadar geçerli Tahmin
Rüzgar kuzeydan kt
Görüş mesafesi 10 km veya daha fazla
1600 ft yükseklikte az bulutlu
Dönüşüyor
ayın 28'si saat 12 UTC'den ayın 28'si saat 14 UTC'ye kadar
Rüzgar doğudan 12 kt
2200 ft yükseklikte parçalı bulutlu

TAF: TTPP 272200Z 2800/2824 00000KT 9999 FEW016 BECMG 2812/2814 10012KT SCT022

4.000'den fazla havaalanı için hava durumu gözlemleri ve tahminleri (METAR ve TAF raporları).

Kullanılabilir istasyonlar harita üzerinde sarı ve kırmızı noktalarla gösterilir.

İstasyonun adını görmek için fareyi noktanın üzerinde gezdirin.

Sonrasında hava gözlem ve tahminlerini görmek için tıklayın.

Haritayı değiştirmek için: yaklaştırmak için siyah artı işaretli yeşil düğmeye ve uzaklaştırmak için de eksi işaretli düğmeye hızla tıklayın; bitişik haritalar için yeşil okları kullanın.


METAR-TAF: